createdAt,value
2022-07-30T00:00:49.206Z,93.12
2022-07-30T00:01:47.244Z,93.76
2022-07-30T00:03:08.243Z,93.82
2022-07-30T00:03:47.644Z,93.72
2022-07-30T00:04:48.066Z,93.72
2022-07-30T00:05:48.077Z,93.52
2022-07-30T00:06:47.197Z,93.92
2022-07-30T00:07:47.173Z,93.72
2022-07-30T00:08:47.186Z,93.76
2022-07-30T00:09:47.190Z,93.32
2022-07-30T00:10:47.151Z,93.72
2022-07-30T00:11:47.141Z,93.82
2022-07-30T00:12:47.126Z,93.32
2022-07-30T00:13:47.144Z,93.46
2022-07-30T00:14:47.137Z,93.32
2022-07-30T00:15:47.103Z,93.52
2022-07-30T00:16:48.224Z,94.43
2022-07-30T00:17:49.141Z,94.67
2022-07-30T00:18:47.056Z,94.37
2022-07-30T00:19:47.591Z,94.27
2022-07-30T00:20:47.052Z,94.67
2022-07-30T00:22:08.029Z,94.78
2022-07-30T00:22:47.015Z,94.57
2022-07-30T00:24:01.620Z,94.31
2022-07-30T00:24:47.988Z,94.62
2022-07-30T00:25:49.596Z,94.47
2022-07-30T00:26:47.117Z,94.51
2022-07-30T00:27:48.023Z,94.62
2022-07-30T00:28:49.584Z,94.62
2022-07-30T00:29:46.937Z,94.62
2022-07-30T00:30:46.958Z,95.37
2022-07-30T00:31:48.129Z,94.66
2022-07-30T00:32:46.906Z,94.82
2022-07-30T00:33:46.909Z,95.32
2022-07-30T00:34:47.589Z,95.07
2022-07-30T00:35:47.602Z,95.37
2022-07-30T00:36:46.883Z,94.86
2022-07-30T00:37:46.896Z,94.96
2022-07-30T00:38:46.837Z,94.86
2022-07-30T00:39:49.573Z,94.86
2022-07-30T00:40:46.816Z,95.37
2022-07-30T00:41:46.802Z,94.76
2022-07-30T00:42:46.793Z,95.37
2022-07-30T00:43:47.875Z,95.57
2022-07-30T00:45:01.589Z,96.18
2022-07-30T00:45:47.888Z,95.78
2022-07-30T00:46:46.744Z,96.18
2022-07-30T00:47:53.596Z,95.67
2022-07-30T00:48:46.816Z,96.02
2022-07-30T00:49:47.593Z,96.02
2022-07-30T00:50:46.699Z,96.18
2022-07-30T00:51:46.700Z,96.22
2022-07-30T00:52:47.598Z,96.02
2022-07-30T00:53:46.702Z,95.98
2022-07-30T00:54:46.679Z,96.02
2022-07-30T00:55:47.711Z,96.12
2022-07-30T00:56:46.640Z,96.12
2022-07-30T00:57:46.627Z,96.12
2022-07-30T00:58:50.163Z,96.12
2022-07-30T00:59:46.607Z,96.33
2022-07-30T01:00:46.624Z,96.42
2022-07-30T01:01:46.640Z,95.31
2022-07-30T01:02:46.585Z,95.82
2022-07-30T01:03:46.628Z,95.27
2022-07-30T01:04:46.565Z,95.21
2022-07-30T01:05:46.536Z,96.38
2022-07-30T01:06:46.530Z,96.33
2022-07-30T01:07:46.509Z,96.12
2022-07-30T01:08:46.503Z,96.33
2022-07-30T01:09:48.466Z,95.92
2022-07-30T01:10:46.483Z,96.53
2022-07-30T01:11:49.241Z,96.78
2022-07-30T01:12:46.457Z,96.67
2022-07-30T01:13:47.503Z,96.98
2022-07-30T01:14:46.622Z,96.57
2022-07-30T01:15:46.456Z,96.47
2022-07-30T01:16:46.466Z,96.47
2022-07-30T01:17:46.405Z,96.78
2022-07-30T01:18:47.390Z,96.57
2022-07-30T01:19:46.635Z,96.92
2022-07-30T01:20:46.398Z,96.72
2022-07-30T01:21:47.100Z,96.82
2022-07-30T01:22:47.146Z,96.82
2022-07-30T01:23:46.336Z,97.33
2022-07-30T01:24:47.349Z,97.02
2022-07-30T01:25:47.098Z,96.82
2022-07-30T01:26:46.331Z,97.28
2022-07-30T01:27:46.313Z,96.82
2022-07-30T01:28:47.345Z,96.88
2022-07-30T01:29:46.263Z,97.18
2022-07-30T01:30:46.279Z,97.28
2022-07-30T01:31:46.328Z,97.08
2022-07-30T01:32:48.128Z,97.58
2022-07-30T01:33:49.095Z,97.08
2022-07-30T01:34:46.208Z,96.98
2022-07-30T01:35:46.207Z,96.57
2022-07-30T01:36:46.195Z,97.02
2022-07-30T01:37:46.197Z,97.28
2022-07-30T01:38:46.159Z,97.13
2022-07-30T01:39:46.154Z,97.33
2022-07-30T01:40:46.156Z,97.02
2022-07-30T01:41:57.159Z,96.82
2022-07-30T01:42:46.128Z,96.92
2022-07-30T01:43:46.118Z,97.13
2022-07-30T01:44:48.596Z,97.43
2022-07-30T01:45:46.650Z,97.23
2022-07-30T01:46:46.078Z,97.43
2022-07-30T01:47:46.195Z,97.43
2022-07-30T01:48:48.694Z,97.43
2022-07-30T01:49:46.039Z,96.92
2022-07-30T01:50:47.090Z,96.82
2022-07-30T01:51:46.020Z,97.33
2022-07-30T01:52:46.026Z,97.33
2022-07-30T01:53:46.027Z,97.94
2022-07-30T01:54:46.604Z,97.13
2022-07-30T01:55:45.981Z,97.13
2022-07-30T01:56:45.971Z,97.02
2022-07-30T01:57:45.955Z,96.92
2022-07-30T01:58:46.138Z,97.43
2022-07-30T01:59:46.598Z,97.13
2022-07-30T02:00:45.984Z,97.53
2022-07-30T02:01:46.604Z,97.33
2022-07-30T02:02:46.622Z,97.23
2022-07-30T02:03:45.996Z,97.13
2022-07-30T02:04:45.876Z,97.13
2022-07-30T02:05:46.187Z,97.33
2022-07-30T02:06:45.868Z,97.83
2022-07-30T02:07:46.616Z,97.83
2022-07-30T02:08:52.606Z,98.03
2022-07-30T02:09:47.403Z,98.90
2022-07-30T02:10:46.601Z,97.88
2022-07-30T02:11:46.160Z,98.99
2022-07-30T02:12:46.632Z,98.49
2022-07-30T02:13:46.606Z,98.59
2022-07-30T02:14:45.760Z,98.79
2022-07-30T02:15:45.773Z,98.90
2022-07-30T02:16:45.834Z,98.49
2022-07-30T02:17:46.606Z,98.59
2022-07-30T02:18:45.723Z,98.99
2022-07-30T02:19:45.717Z,98.59
2022-07-30T02:20:48.772Z,98.90
2022-07-30T02:21:50.792Z,98.99
2022-07-30T02:22:46.679Z,98.99
2022-07-30T02:23:45.671Z,98.79
2022-07-30T02:24:45.652Z,98.90
2022-07-30T02:25:45.650Z,98.49
2022-07-30T02:26:45.664Z,98.90
2022-07-30T02:27:45.629Z,98.90
2022-07-30T02:28:45.612Z,98.49
2022-07-30T02:29:46.115Z,98.90
2022-07-30T02:30:45.587Z,98.90
2022-07-30T02:31:45.607Z,98.90
2022-07-30T02:32:45.594Z,98.18
2022-07-30T02:33:49.010Z,98.39
2022-07-30T02:34:45.558Z,99.10
2022-07-30T02:35:46.100Z,98.90
2022-07-30T02:36:45.540Z,98.90
2022-07-30T02:37:45.639Z,98.84
2022-07-30T02:38:45.528Z,98.99
2022-07-30T02:39:46.532Z,99.19
2022-07-30T02:40:45.484Z,98.90
2022-07-30T02:41:49.648Z,99.10
2022-07-30T02:42:45.631Z,98.79
2022-07-30T02:43:48.113Z,98.59
2022-07-30T02:44:46.107Z,98.90
2022-07-30T02:45:45.430Z,99.30
2022-07-30T02:46:45.453Z,98.79
2022-07-30T02:47:45.406Z,98.90
2022-07-30T02:48:45.466Z,99.10
2022-07-30T02:49:45.395Z,98.39
2022-07-30T02:50:46.105Z,98.69
2022-07-30T02:51:45.382Z,98.69
2022-07-30T02:52:46.384Z,98.49
2022-07-30T02:53:45.356Z,98.69
2022-07-30T02:54:45.327Z,98.39
2022-07-30T02:55:45.316Z,98.49
2022-07-30T02:56:46.116Z,98.69
2022-07-30T02:57:45.291Z,98.49
2022-07-30T02:58:45.294Z,98.18
2022-07-30T02:59:47.160Z,98.59
2022-07-30T03:00:45.304Z,98.59
2022-07-30T03:01:45.406Z,98.79
2022-07-30T03:02:45.233Z,98.23
2022-07-30T03:03:47.121Z,98.69
2022-07-30T03:04:45.213Z,98.63
2022-07-30T03:05:45.217Z,98.23
2022-07-30T03:06:45.196Z,98.49
2022-07-30T03:07:45.183Z,98.43
2022-07-30T03:08:45.187Z,98.33
2022-07-30T03:09:51.097Z,97.92
2022-07-30T03:10:46.189Z,98.13
2022-07-30T03:11:45.142Z,97.92
2022-07-30T03:12:45.125Z,98.43
2022-07-30T03:13:45.131Z,98.63
2022-07-30T03:14:45.114Z,98.74
2022-07-30T03:15:45.093Z,98.63
2022-07-30T03:16:45.138Z,98.54
2022-07-30T03:17:45.068Z,99.14
2022-07-30T03:18:45.058Z,99.04
2022-07-30T03:19:46.098Z,99.24
2022-07-30T03:20:45.041Z,99.29
2022-07-30T03:21:45.140Z,98.74
2022-07-30T03:22:45.136Z,98.88
2022-07-30T03:23:45.016Z,98.63
2022-07-30T03:24:44.996Z,98.99
2022-07-30T03:25:44.990Z,98.68
2022-07-30T03:26:45.144Z,99.14
2022-07-30T03:27:44.991Z,98.68
2022-07-30T03:28:51.611Z,98.99
2022-07-30T03:29:44.952Z,99.19
2022-07-30T03:30:44.940Z,98.48
2022-07-30T03:31:45.066Z,98.68
2022-07-30T03:32:44.910Z,99.39
2022-07-30T03:33:44.925Z,99.49
2022-07-30T03:34:45.615Z,99.39
2022-07-30T03:35:44.903Z,99.39
2022-07-30T03:36:44.866Z,99.08
2022-07-30T03:37:44.865Z,99.19
2022-07-30T03:38:45.920Z,99.39
2022-07-30T03:39:44.832Z,99.39
2022-07-30T03:40:44.827Z,98.88
2022-07-30T03:41:44.814Z,99.90
2022-07-30T03:42:44.805Z,99.08
2022-07-30T03:43:44.799Z,99.90
2022-07-30T03:44:45.648Z,99.99
2022-07-30T03:45:45.157Z,99.99
2022-07-30T03:46:44.840Z,99.60
2022-07-30T03:47:44.739Z,99.60
2022-07-30T03:48:44.761Z,99.80
2022-07-30T03:49:44.725Z,99.99
2022-07-30T03:50:45.626Z,99.80
2022-07-30T03:51:48.148Z,99.69
2022-07-30T03:52:44.730Z,99.99
2022-07-30T03:53:44.691Z,99.49
2022-07-30T03:54:45.641Z,98.99
2022-07-30T03:55:44.663Z,98.99
2022-07-30T03:56:47.617Z,99.69
2022-07-30T03:57:45.661Z,98.99
2022-07-30T03:58:45.610Z,99.74
2022-07-30T03:59:45.696Z,99.99
2022-07-30T04:00:44.604Z,99.99
2022-07-30T04:01:44.617Z,99.99
2022-07-30T04:02:45.117Z,99.19
2022-07-30T04:03:45.183Z,99.44
2022-07-30T04:04:45.116Z,99.60
2022-07-30T04:05:44.578Z,99.44
2022-07-30T04:06:44.549Z,99.99
2022-07-30T04:07:45.667Z,99.74
2022-07-30T04:08:44.535Z,99.99
2022-07-30T04:09:44.505Z,99.99
2022-07-30T04:10:44.493Z,99.99
2022-07-30T04:11:44.491Z,99.99
2022-07-30T04:12:44.495Z,99.99
2022-07-30T04:13:44.469Z,99.69
2022-07-30T04:14:44.461Z,99.49
2022-07-30T04:16:37.283Z,99.90
2022-07-30T04:16:45.509Z,99.99
2022-07-30T04:17:44.443Z,99.80
2022-07-30T04:18:45.120Z,99.44
2022-07-30T04:19:45.121Z,99.99
2022-07-30T04:20:44.396Z,99.99
2022-07-30T04:21:44.386Z,99.99
2022-07-30T04:22:45.116Z,99.95
2022-07-30T04:24:04.082Z,99.99
2022-07-30T04:24:45.345Z,99.99
2022-07-30T04:25:44.345Z,99.99
2022-07-30T04:26:45.120Z,99.99
2022-07-30T04:28:03.068Z,99.99
2022-07-30T04:28:48.617Z,99.99
2022-07-30T04:29:45.329Z,99.99
2022-07-30T04:30:44.278Z,99.99
2022-07-30T04:31:44.709Z,99.99
2022-07-30T04:32:51.123Z,99.99
2022-07-30T04:33:45.159Z,99.99
2022-07-30T04:34:44.241Z,99.99
2022-07-30T04:35:51.557Z,99.99
2022-07-30T04:36:52.120Z,99.99
2022-07-30T04:37:44.202Z,99.99
2022-07-30T04:38:44.199Z,99.99
2022-07-30T04:39:44.199Z,99.99
2022-07-30T04:40:44.179Z,99.99
2022-07-30T04:41:49.742Z,99.99
2022-07-30T04:42:44.187Z,99.99
2022-07-30T04:43:44.133Z,99.99
2022-07-30T04:44:44.180Z,99.99
2022-07-30T04:45:44.120Z,99.99
2022-07-30T04:46:44.213Z,99.99
2022-07-30T04:47:46.620Z,99.99
2022-07-30T04:48:48.204Z,99.99
2022-07-30T04:49:44.083Z,99.99
2022-07-30T04:50:44.083Z,99.99
2022-07-30T04:51:44.619Z,99.99
2022-07-30T04:52:46.625Z,99.99
2022-07-30T04:53:44.037Z,99.99
2022-07-30T04:54:44.151Z,99.99
2022-07-30T04:55:44.045Z,99.99
2022-07-30T04:56:53.062Z,99.99
2022-07-30T04:57:44.992Z,99.99
2022-07-30T04:58:44.002Z,99.99
2022-07-30T04:59:43.963Z,99.99
2022-07-30T05:00:43.957Z,99.99
2022-07-30T05:01:43.998Z,99.99
2022-07-30T05:02:46.629Z,99.99
2022-07-30T05:03:43.926Z,99.99
2022-07-30T05:04:43.894Z,99.99
2022-07-30T05:05:43.979Z,99.99
2022-07-30T05:06:44.972Z,99.99
2022-07-30T05:07:43.877Z,99.99
2022-07-30T05:08:43.881Z,99.99
2022-07-30T05:09:44.857Z,99.99
2022-07-30T05:10:43.847Z,99.99
2022-07-30T05:11:44.629Z,99.99
2022-07-30T05:12:47.118Z,99.91
2022-07-30T05:13:46.155Z,99.99
2022-07-30T05:14:48.171Z,99.70
2022-07-30T05:15:43.839Z,99.99
2022-07-30T05:16:43.780Z,99.99
2022-07-30T05:17:44.158Z,99.99
2022-07-30T05:18:43.762Z,99.99
2022-07-30T05:19:45.829Z,99.91
2022-07-30T05:20:50.624Z,99.99
2022-07-30T05:21:44.754Z,99.99
2022-07-30T05:22:50.895Z,99.99
2022-07-30T05:23:51.622Z,99.96
2022-07-30T05:24:43.698Z,99.99
2022-07-30T05:25:43.685Z,99.99
2022-07-30T05:26:44.633Z,99.99
2022-07-30T05:27:43.679Z,99.99
2022-07-30T05:28:44.645Z,99.76
2022-07-30T05:29:44.627Z,99.81
2022-07-30T05:30:44.636Z,99.99
2022-07-30T05:31:43.610Z,99.99
2022-07-30T05:32:50.132Z,99.61
2022-07-30T05:33:43.599Z,99.71
2022-07-30T05:34:43.580Z,99.71
2022-07-30T05:35:44.597Z,98.90
2022-07-30T05:36:43.584Z,99.66
2022-07-30T05:37:46.126Z,99.61
2022-07-30T05:38:43.561Z,99.56
2022-07-30T05:39:57.568Z,99.05
2022-07-30T05:40:44.515Z,99.77
2022-07-30T05:41:43.537Z,99.87
2022-07-30T05:42:43.498Z,99.66
2022-07-30T05:43:46.131Z,99.66
2022-07-30T05:44:44.492Z,98.85
2022-07-30T05:45:50.178Z,99.16
2022-07-30T05:46:43.518Z,99.26
2022-07-30T05:47:43.446Z,99.26
2022-07-30T05:48:46.175Z,99.82
2022-07-30T05:49:43.456Z,99.52
2022-07-30T05:50:43.405Z,98.96
2022-07-30T05:51:43.668Z,98.91
2022-07-30T05:52:44.126Z,99.11
2022-07-30T05:53:43.381Z,98.61
2022-07-30T05:54:43.661Z,99.82
2022-07-30T05:55:46.128Z,99.82
2022-07-30T05:56:43.345Z,99.62
2022-07-30T05:57:43.328Z,99.01
2022-07-30T05:58:44.138Z,99.82
2022-07-30T05:59:43.331Z,99.72
2022-07-30T06:00:43.289Z,99.62
2022-07-30T06:01:43.361Z,99.77
2022-07-30T06:02:44.164Z,98.96
2022-07-30T06:03:43.260Z,98.96
2022-07-30T06:04:45.990Z,98.76
2022-07-30T06:05:43.237Z,99.07
2022-07-30T06:06:43.229Z,98.92
2022-07-30T06:07:43.235Z,98.61
2022-07-30T06:08:43.229Z,98.41
2022-07-30T06:09:43.211Z,97.10
2022-07-30T06:10:43.187Z,97.30
2022-07-30T06:11:43.192Z,97.30
2022-07-30T06:12:43.189Z,97.30
2022-07-30T06:13:43.164Z,97.00
2022-07-30T06:14:43.142Z,97.20
2022-07-30T06:15:43.201Z,97.00
2022-07-30T06:16:43.113Z,97.30
2022-07-30T06:17:43.137Z,96.85
2022-07-30T06:18:43.094Z,97.05
2022-07-30T06:19:44.117Z,96.65
2022-07-30T06:20:49.628Z,96.75
2022-07-30T06:22:06.262Z,97.36
2022-07-30T06:22:44.063Z,96.70
2022-07-30T06:23:43.056Z,96.70
2022-07-30T06:24:43.058Z,96.50
2022-07-30T06:25:43.171Z,96.30
2022-07-30T06:26:43.027Z,96.30
2022-07-30T06:27:43.187Z,97.01
2022-07-30T06:28:43.176Z,96.70
2022-07-30T06:29:42.977Z,96.50
2022-07-30T06:30:43.047Z,96.66
2022-07-30T06:31:42.970Z,96.40
2022-07-30T06:32:42.943Z,96.25
2022-07-30T06:33:43.065Z,95.90
2022-07-30T06:34:42.941Z,96.66
2022-07-30T06:35:43.032Z,96.15
2022-07-30T06:36:42.935Z,96.05
2022-07-30T06:38:05.711Z,96.51
2022-07-30T06:38:44.081Z,96.45
2022-07-30T06:39:57.803Z,96.41
2022-07-30T06:40:43.861Z,96.61
2022-07-30T06:41:42.872Z,95.95
2022-07-30T06:42:42.828Z,95.90
2022-07-30T06:43:42.885Z,96.36
2022-07-30T06:44:42.830Z,96.31
2022-07-30T06:45:42.901Z,95.75
2022-07-30T06:46:42.827Z,95.90
2022-07-30T06:47:42.908Z,95.00
2022-07-30T06:48:42.810Z,94.19
2022-07-30T06:49:42.922Z,93.49
2022-07-30T06:50:42.760Z,92.98
2022-07-30T06:51:42.782Z,93.14
2022-07-30T06:52:42.719Z,92.74
2022-07-30T06:53:43.036Z,92.38
2022-07-30T06:54:42.718Z,92.43
2022-07-30T06:55:42.761Z,92.33
2022-07-30T06:56:43.164Z,93.14
2022-07-30T06:57:42.862Z,92.74
2022-07-30T06:58:42.663Z,92.33
2022-07-30T06:59:57.332Z,92.54
2022-07-30T07:00:43.690Z,91.93
2022-07-30T07:01:42.684Z,92.13
2022-07-30T07:02:43.133Z,92.63
2022-07-30T07:03:42.813Z,92.74
2022-07-30T07:04:42.631Z,92.74
2022-07-30T07:05:43.649Z,91.73
2022-07-30T07:06:42.672Z,91.93
2022-07-30T07:07:52.427Z,92.43
2022-07-30T07:08:44.142Z,92.29
2022-07-30T07:09:44.622Z,91.49
2022-07-30T07:10:43.685Z,91.42
2022-07-30T07:11:42.514Z,91.73
2022-07-30T07:12:47.842Z,92.63
2022-07-30T07:13:42.537Z,91.18
2022-07-30T07:14:42.770Z,91.53
2022-07-30T07:15:42.481Z,92.09
2022-07-30T07:16:43.338Z,91.78
2022-07-30T07:17:43.467Z,92.59
2022-07-30T07:18:42.552Z,91.08
2022-07-30T07:20:01.684Z,91.69
2022-07-30T07:20:44.140Z,91.44
2022-07-30T07:21:45.186Z,91.44
2022-07-30T07:22:45.281Z,91.54
2022-07-30T07:23:42.792Z,91.14
2022-07-30T07:24:43.144Z,91.34
2022-07-30T07:25:42.555Z,91.24
2022-07-30T07:26:43.150Z,91.85
2022-07-30T07:27:42.567Z,91.14
2022-07-30T07:28:42.325Z,91.04
2022-07-30T07:29:42.330Z,91.54
2022-07-30T07:30:43.499Z,90.94
2022-07-30T07:32:06.152Z,91.34
2022-07-30T07:32:43.421Z,92.05
2022-07-30T07:33:42.268Z,91.94
2022-07-30T07:34:42.406Z,91.54
2022-07-30T07:35:49.651Z,92.35
2022-07-30T07:36:43.237Z,92.55
2022-07-30T07:37:42.432Z,92.14
2022-07-30T07:38:42.224Z,92.39
2022-07-30T07:39:42.485Z,92.25
2022-07-30T07:40:42.188Z,92.39
2022-07-30T07:41:48.752Z,92.25
2022-07-30T07:42:44.141Z,92.59
2022-07-30T07:43:42.252Z,92.90
2022-07-30T07:44:42.151Z,92.29
2022-07-30T07:45:43.434Z,92.99
2022-07-30T07:46:42.187Z,93.40
2022-07-30T07:47:42.294Z,92.35
2022-07-30T07:48:43.146Z,93.05
2022-07-30T07:49:42.100Z,93.19
2022-07-30T07:50:42.090Z,92.95
2022-07-30T07:51:47.166Z,92.95
2022-07-30T07:52:43.086Z,93.19
2022-07-30T07:53:42.131Z,93.30
2022-07-30T07:54:42.045Z,92.95
2022-07-30T07:55:42.156Z,93.46
2022-07-30T07:56:42.036Z,92.85
2022-07-30T07:57:43.226Z,92.75
2022-07-30T07:58:41.992Z,93.55
2022-07-30T07:59:42.178Z,93.51
2022-07-30T08:00:41.972Z,93.46
2022-07-30T08:01:42.250Z,92.55
2022-07-30T08:02:42.716Z,92.85
2022-07-30T08:03:41.968Z,92.45
2022-07-30T08:04:41.930Z,92.85
2022-07-30T08:05:58.249Z,93.55
2022-07-30T08:06:43.173Z,93.50
2022-07-30T08:07:42.020Z,92.99
2022-07-30T08:08:41.885Z,93.30
2022-07-30T08:09:44.698Z,93.30
2022-07-30T08:10:41.884Z,93.10
2022-07-30T08:11:42.046Z,94.00
2022-07-30T08:12:42.177Z,94.40
2022-07-30T08:13:51.329Z,93.10
2022-07-30T08:14:42.837Z,93.26
2022-07-30T08:15:41.920Z,93.30
2022-07-30T08:16:42.693Z,93.35
2022-07-30T08:17:41.815Z,93.15
2022-07-30T08:18:41.781Z,92.55
2022-07-30T08:19:42.835Z,92.85
2022-07-30T08:20:41.740Z,92.35
2022-07-30T08:21:42.680Z,92.35
2022-07-30T08:22:41.759Z,92.60
2022-07-30T08:23:42.663Z,92.95
2022-07-30T08:24:42.656Z,92.95
2022-07-30T08:25:41.719Z,92.30
2022-07-30T08:26:42.681Z,91.90
2022-07-30T08:27:41.672Z,92.30
2022-07-30T08:28:41.663Z,92.40
2022-07-30T08:29:41.667Z,91.30
2022-07-30T08:30:41.648Z,91.39
2022-07-30T08:31:48.156Z,91.50
2022-07-30T08:32:41.646Z,92.40
2022-07-30T08:33:41.628Z,91.75
2022-07-30T08:34:41.597Z,91.66
2022-07-30T08:35:48.594Z,91.75
2022-07-30T08:36:43.151Z,91.46
2022-07-30T08:37:41.569Z,92.36
2022-07-30T08:38:41.569Z,91.46
2022-07-30T08:39:41.699Z,91.66
2022-07-30T08:40:41.537Z,91.15
2022-07-30T08:41:42.532Z,90.34
2022-07-30T08:42:41.511Z,90.55
2022-07-30T08:43:42.512Z,91.05
2022-07-30T08:44:41.500Z,90.85
2022-07-30T08:45:41.540Z,90.85
2022-07-30T08:46:41.499Z,91.05
2022-07-30T08:47:42.469Z,90.91
2022-07-30T08:48:41.540Z,90.50
2022-07-30T08:49:41.460Z,90.00
2022-07-30T08:50:41.420Z,89.96
2022-07-30T08:51:41.693Z,91.11
2022-07-30T08:52:41.399Z,90.56
2022-07-30T08:53:41.399Z,89.46
2022-07-30T08:54:41.382Z,89.86
2022-07-30T08:55:41.372Z,89.56
2022-07-30T08:56:41.443Z,90.06
2022-07-30T08:57:41.346Z,89.26
2022-07-30T08:58:42.157Z,90.02
2022-07-30T08:59:52.975Z,90.22
2022-07-30T09:00:43.165Z,90.22
2022-07-30T09:01:41.350Z,88.91
2022-07-30T09:02:41.295Z,88.87
2022-07-30T09:03:44.173Z,88.81
2022-07-30T09:04:48.160Z,89.01
2022-07-30T09:05:41.260Z,90.02
2022-07-30T09:06:41.310Z,90.08
2022-07-30T09:07:41.700Z,89.82
2022-07-30T09:08:41.284Z,90.22
2022-07-30T09:09:41.224Z,88.91
2022-07-30T09:10:52.828Z,89.67
2022-07-30T09:11:42.197Z,88.07
2022-07-30T09:12:41.216Z,88.81
2022-07-30T09:13:41.197Z,88.57
2022-07-30T09:14:41.183Z,88.67
2022-07-30T09:15:41.153Z,88.83
2022-07-30T09:16:41.175Z,89.13
2022-07-30T09:17:41.194Z,88.23
2022-07-30T09:18:41.128Z,88.12
2022-07-30T09:19:41.119Z,88.83
2022-07-30T09:20:41.106Z,89.13
2022-07-30T09:21:43.658Z,88.53
2022-07-30T09:23:02.103Z,87.42
2022-07-30T09:23:41.068Z,87.48
2022-07-30T09:24:43.665Z,88.12
2022-07-30T09:25:41.058Z,88.68
2022-07-30T09:26:43.671Z,88.99
2022-07-30T09:27:41.035Z,88.09
2022-07-30T09:28:41.186Z,88.18
2022-07-30T09:29:41.004Z,86.38
2022-07-30T09:30:40.989Z,86.98
2022-07-30T09:31:43.710Z,86.44
2022-07-30T09:32:40.970Z,85.03
2022-07-30T09:33:40.994Z,84.33
2022-07-30T09:34:41.666Z,84.29
2022-07-30T09:35:42.002Z,84.19
2022-07-30T09:36:47.663Z,84.39
2022-07-30T09:37:40.928Z,84.49
2022-07-30T09:38:40.914Z,84.49
2022-07-30T09:39:40.937Z,83.59
2022-07-30T09:40:42.951Z,84.19
2022-07-30T09:41:40.890Z,84.25
2022-07-30T09:42:47.675Z,84.39
2022-07-30T09:43:40.859Z,84.25
2022-07-30T09:44:41.907Z,83.05
2022-07-30T09:45:40.869Z,81.95
2022-07-30T09:46:41.828Z,82.95
2022-07-30T09:47:40.821Z,83.25
2022-07-30T09:48:40.868Z,83.41
2022-07-30T09:49:49.734Z,81.41
2022-07-30T09:50:40.785Z,82.81
2022-07-30T09:51:56.515Z,82.21
2022-07-30T09:52:43.860Z,81.21
2022-07-30T09:53:43.671Z,80.36
2022-07-30T09:54:40.729Z,80.87
2022-07-30T09:55:42.314Z,79.43
2022-07-30T09:56:53.985Z,79.73
2022-07-30T09:57:41.725Z,79.99
2022-07-30T09:58:45.664Z,79.59
2022-07-30T09:59:40.728Z,79.99
2022-07-30T10:00:42.310Z,79.79
2022-07-30T10:01:49.515Z,79.59
2022-07-30T10:02:41.663Z,79.99
2022-07-30T10:03:42.083Z,79.19
2022-07-30T10:04:40.630Z,78.39
2022-07-30T10:05:40.614Z,79.39
2022-07-30T10:06:41.951Z,79.89
2022-07-30T10:07:43.613Z,79.46
2022-07-30T10:08:40.584Z,79.55
2022-07-30T10:09:40.607Z,78.75
2022-07-30T10:10:47.228Z,77.95
2022-07-30T10:11:41.547Z,79.16
2022-07-30T10:12:40.567Z,78.96
2022-07-30T10:13:43.969Z,78.45
2022-07-30T10:14:42.336Z,78.25
2022-07-30T10:15:40.509Z,78.75
2022-07-30T10:16:41.174Z,78.85
2022-07-30T10:17:41.555Z,80.02
2022-07-30T10:18:40.477Z,79.11
2022-07-30T10:19:41.810Z,77.51
2022-07-30T10:20:40.914Z,78.22
2022-07-30T10:21:40.443Z,78.08
2022-07-30T10:22:40.436Z,77.44
2022-07-30T10:23:44.188Z,75.35
2022-07-30T10:24:40.417Z,76.04
2022-07-30T10:25:49.656Z,76.04
2022-07-30T10:26:41.386Z,77.34
2022-07-30T10:27:41.194Z,77.11
2022-07-30T10:28:41.202Z,75.41
2022-07-30T10:29:42.711Z,75.11
2022-07-30T10:30:40.378Z,75.71
2022-07-30T10:31:47.352Z,73.82
2022-07-30T10:32:56.170Z,75.57
2022-07-30T10:33:42.213Z,74.38
2022-07-30T10:34:42.358Z,70.89
2022-07-30T10:35:41.361Z,70.59
2022-07-30T10:36:40.298Z,68.90
2022-07-30T10:37:43.179Z,68.99
2022-07-30T10:38:41.462Z,69.39
2022-07-30T10:39:40.279Z,69.39
2022-07-30T10:40:40.236Z,69.79
2022-07-30T10:41:47.541Z,70.39
2022-07-30T10:42:41.209Z,69.69
2022-07-30T10:43:40.213Z,69.49
2022-07-30T10:44:40.640Z,69.96
2022-07-30T10:45:43.747Z,69.36
2022-07-30T10:46:41.216Z,67.50
2022-07-30T10:47:44.530Z,69.69
2022-07-30T10:48:41.149Z,70.19
2022-07-30T10:49:41.315Z,70.29
2022-07-30T10:50:40.140Z,71.15
2022-07-30T10:51:40.678Z,72.41
2022-07-30T10:52:40.146Z,71.02
2022-07-30T10:53:40.100Z,71.98
2022-07-30T10:54:40.679Z,70.09
2022-07-30T10:55:40.078Z,68.90
2022-07-30T10:56:40.071Z,67.10
2022-07-30T10:57:42.674Z,66.91
2022-07-30T10:58:40.203Z,66.71
2022-07-30T10:59:47.691Z,65.44
2022-07-30T11:00:40.118Z,65.81
2022-07-30T11:01:40.008Z,65.11
2022-07-30T11:02:40.034Z,65.11
2022-07-30T11:03:45.181Z,65.81
2022-07-30T11:04:55.685Z,65.01
2022-07-30T11:05:45.576Z,65.68
2022-07-30T11:06:40.958Z,66.27
2022-07-30T11:07:39.963Z,68.46
2022-07-30T11:08:42.642Z,66.64
2022-07-30T11:09:40.885Z,64.45
2022-07-30T11:10:43.874Z,66.05
2022-07-30T11:12:02.018Z,66.81
2022-07-30T11:12:40.898Z,64.85
2022-07-30T11:13:40.693Z,67.60
2022-07-30T11:14:40.868Z,66.81
2022-07-30T11:15:40.683Z,67.30
2022-07-30T11:16:40.750Z,68.50
2022-07-30T11:17:40.226Z,66.18
2022-07-30T11:18:39.824Z,65.81
2022-07-30T11:19:53.181Z,66.81
2022-07-30T11:20:40.819Z,66.78
2022-07-30T11:21:40.237Z,67.54
2022-07-30T11:22:39.782Z,64.36
2022-07-30T11:23:40.862Z,64.13
2022-07-30T11:24:39.791Z,62.64
2022-07-30T11:25:50.245Z,62.10
2022-07-30T11:26:41.180Z,65.28
2022-07-30T11:27:41.404Z,64.79
2022-07-30T11:28:40.686Z,65.58
2022-07-30T11:29:51.161Z,64.39
2022-07-30T11:30:40.734Z,65.06
2022-07-30T11:31:58.651Z,64.76
2022-07-30T11:32:40.672Z,64.95
2022-07-30T11:33:40.301Z,64.76
2022-07-30T11:34:41.214Z,64.69
2022-07-30T11:35:40.233Z,64.82
2022-07-30T11:36:40.205Z,64.92
2022-07-30T11:37:41.198Z,64.82
2022-07-30T11:38:40.596Z,65.22
2022-07-30T11:39:41.228Z,63.40
2022-07-30T11:40:39.625Z,64.39
2022-07-30T11:41:40.202Z,64.49
2022-07-30T11:42:40.195Z,62.34
2022-07-30T11:43:42.191Z,63.03
2022-07-30T11:44:40.197Z,64.82
2022-07-30T11:45:39.558Z,62.70
2022-07-30T11:46:40.233Z,64.26
2022-07-30T11:47:39.506Z,62.57
2022-07-30T11:48:40.221Z,62.45
2022-07-30T11:49:40.193Z,63.93
2022-07-30T11:50:40.196Z,62.31
2022-07-30T11:51:40.263Z,58.64
2022-07-30T11:52:39.450Z,60.53
2022-07-30T11:53:42.199Z,60.60
2022-07-30T11:54:40.250Z,60.80
2022-07-30T11:55:40.230Z,59.41
2022-07-30T11:56:40.259Z,59.08
2022-07-30T11:57:42.206Z,59.91
2022-07-30T11:58:42.193Z,60.80
2022-07-30T11:59:48.319Z,60.96
2022-07-30T12:00:40.262Z,59.84
2022-07-30T12:01:44.732Z,58.19
2022-07-30T12:02:54.190Z,59.18
2022-07-30T12:03:42.202Z,58.59
2022-07-30T12:04:42.248Z,57.62
2022-07-30T12:05:42.208Z,58.59
2022-07-30T12:06:42.195Z,56.23
2022-07-30T12:07:53.730Z,58.81
2022-07-30T12:08:39.275Z,58.15
2022-07-30T12:09:43.905Z,59.44
2022-07-30T12:10:40.204Z,59.04
2022-07-30T12:11:46.211Z,59.51
2022-07-30T12:12:39.256Z,58.60
2022-07-30T12:13:44.577Z,59.19
2022-07-30T12:14:42.215Z,61.25
2022-07-30T12:15:46.199Z,59.36
2022-07-30T12:16:39.217Z,58.34
2022-07-30T12:17:41.706Z,60.30
2022-07-30T12:18:41.719Z,60.47
2022-07-30T12:19:47.347Z,61.16
2022-07-30T12:20:42.702Z,59.25
2022-07-30T12:21:41.167Z,59.25
2022-07-30T12:22:39.147Z,57.07
2022-07-30T12:23:41.227Z,57.64
2022-07-30T12:24:40.426Z,59.22
2022-07-30T12:25:39.101Z,56.97
2022-07-30T12:26:40.701Z,57.57
2022-07-30T12:27:40.726Z,57.97
2022-07-30T12:28:41.152Z,58.69
2022-07-30T12:29:41.709Z,59.74
2022-07-30T12:30:41.732Z,58.17
2022-07-30T12:31:39.858Z,58.57
2022-07-30T12:32:41.704Z,59.93
2022-07-30T12:33:42.278Z,60.23
2022-07-30T12:34:41.708Z,58.81
2022-07-30T12:35:41.701Z,60.03
2022-07-30T12:36:38.983Z,59.47
2022-07-30T12:37:42.267Z,60.83
2022-07-30T12:38:38.954Z,59.76
2022-07-30T12:39:40.734Z,61.78
2022-07-30T12:40:38.942Z,59.19
2022-07-30T12:41:41.717Z,60.98
2022-07-30T12:42:38.920Z,59.92
2022-07-30T12:43:41.707Z,59.55
2022-07-30T12:44:41.770Z,59.82
2022-07-30T12:45:51.999Z,59.89
2022-07-30T12:46:40.713Z,57.25
2022-07-30T12:47:40.600Z,59.01
2022-07-30T12:48:38.873Z,55.71
2022-07-30T12:49:48.875Z,55.51
2022-07-30T12:50:40.881Z,56.40
2022-07-30T12:51:38.811Z,56.70
2022-07-30T12:52:38.812Z,56.13